Time;durP1;ratioP1;P1;durP2;ratioP2;P2;SDS_P1;SDS_P2;PMS_P1;PMS_P2;Temp;Humidity;BMP_temperature;BMP_pressure;BME280_temperature;BME280_humidity;BME280_pressure;Samples;Min_cycle;Max_cycle;Signal;HPM_P1;HPM_P2
2021/10/26 00:08:06;;;;;;;7.53;2.28;;;12.40;51.40;;;;;;20796568;28;82093;-70
2021/10/26 00:18:09;;;;;;;7.93;3.00;;;12.30;51.90;;;;;;20796750;28;79909;-69
2021/10/26 00:28:12;;;;;;;9.50;3.27;;;12.20;52.30;;;;;;20797973;28;80907;-69
2021/10/26 00:38:13;;;;;;;8.77;3.08;;;12.20;52.70;;;;;;20796651;28;80574;-71
2021/10/26 00:48:15;;;;;;;6.93;1.77;;;12.20;53.00;;;;;;20797059;28;81851;-69
2021/10/26 00:58:19;;;;;;;8.63;2.45;;;12.40;52.50;;;;;;20804562;28;80164;-69
2021/10/26 01:08:21;;;;;;;4.83;2.23;;;12.40;52.60;;;;;;20809071;28;80771;-69
2021/10/26 01:18:25;;;;;;;5.03;1.77;;;12.40;52.90;;;;;;20806756;28;82115;-70
2021/10/26 01:28:29;;;;;;;4.55;1.30;;;12.50;52.90;;;;;;20807220;28;80730;-70
2021/10/26 01:38:34;;;;;;;5.05;1.20;;;12.50;52.50;;;;;;20805585;28;80779;-69
2021/10/26 01:48:38;;;;;;;3.80;1.45;;;12.70;52.00;;;;;;20796700;28;80607;-70
2021/10/26 01:58:47;;;;;;;5.43;1.00;;;12.70;51.60;;;;;;20798359;28;81667;-71
2021/10/26 02:08:49;;;;;;;2.53;1.13;;;12.80;50.90;;;;;;20799574;28;80797;-70
2021/10/26 02:18:53;;;;;;;2.85;1.10;;;12.90;50.60;;;;;;20796149;28;82341;-71
2021/10/26 02:29:00;;;;;;;4.38;1.10;;;12.90;50.90;;;;;;20797521;28;81837;-70
2021/10/26 02:39:05;;;;;;;4.15;0.82;;;12.70;51.20;;;;;;20802446;28;82252;-71
2021/10/26 02:49:14;;;;;;;5.47;1.20;;;12.70;51.00;;;;;;20801704;28;80801;-71
2021/10/26 02:59:18;;;;;;;10.30;1.17;;;12.70;50.90;;;;;;20800004;28;80552;-71
2021/10/26 03:09:20;;;;;;;4.57;1.08;;;12.70;51.30;;;;;;20802468;28;82089;-71
2021/10/26 03:19:24;;;;;;;2.80;0.83;;;12.50;51.50;;;;;;20800389;28;80818;-71
2021/10/26 03:29:27;;;;;;;3.33;1.67;;;12.40;51.40;;;;;;20799170;28;80727;-69
2021/10/26 03:39:30;;;;;;;5.72;1.10;;;12.40;51.50;;;;;;20797528;28;80749;-69
2021/10/26 03:49:33;;;;;;;4.73;1.60;;;12.40;51.10;;;;;;20797485;28;80950;-69
2021/10/26 03:59:36;;;;;;;6.90;1.27;;;12.50;50.50;;;;;;20798226;28;80769;-68
2021/10/26 04:20:16;;;;;;;3.20;1.10;;;12.50;50.60;;;;;;20852072;28;81587;-70
2021/10/26 04:30:21;;;;;;;3.00;1.30;;;12.50;50.70;;;;;;20886380;27;80442;-69
2021/10/26 04:40:24;;;;;;;4.53;1.30;;;12.40;51.20;;;;;;20885032;27;80812;-69
2021/10/26 04:50:32;;;;;;;8.77;2.22;;;12.30;51.40;;;;;;20891229;27;81886;-69
2021/10/26 05:00:34;;;;;;;3.03;1.25;;;12.30;51.40;;;;;;20892832;27;80361;-70
2021/10/26 05:10:36;;;;;;;8.13;1.25;;;12.40;51.10;;;;;;20892196;28;80536;-70
2021/10/26 05:20:40;;;;;;;3.23;1.30;;;12.40;50.90;;;;;;20892760;27;79808;-70
2021/10/26 05:30:43;;;;;;;;;;;12.40;50.70;;;;;;20892303;27;81743;-68
2021/10/26 05:40:47;;;;;;;4.67;1.10;;;12.40;50.70;;;;;;20893917;27;80571;-67
2021/10/26 05:50:49;;;;;;;2.75;1.00;;;12.40;50.70;;;;;;20874951;27;80982;-67
2021/10/26 06:00:51;;;;;;;4.75;1.25;;;12.50;50.70;;;;;;20870132;27;81951;-67
2021/10/26 06:10:59;;;;;;;3.87;1.30;;;12.40;50.90;;;;;;20878926;27;81045;-69
2021/10/26 06:21:02;;;;;;;3.85;1.40;;;12.40;50.90;;;;;;20874125;28;80993;-69
2021/10/26 06:31:04;;;;;;;7.68;1.27;;;12.40;51.30;;;;;;20874715;27;81637;-68
2021/10/26 06:41:08;;;;;;;;;;;12.40;51.20;;;;;;20874444;27;80824;-68
2021/10/26 06:51:10;;;;;;;7.32;2.28;;;12.40;51.50;;;;;;20892818;28;80588;-70
2021/10/26 07:01:12;;;;;;;10.60;2.28;;;12.30;51.50;;;;;;20869505;27;81558;-69
2021/10/26 07:11:14;;;;;;;5.18;2.03;;;12.30;51.70;;;;;;20866427;28;81890;-67
2021/10/26 07:21:18;;;;;;;11.17;1.63;;;12.30;51.90;;;;;;20871521;28;80851;-70
2021/10/26 07:31:23;;;;;;;11.63;1.85;;;12.50;51.50;;;;;;20874437;27;81464;-69
2021/10/26 07:41:26;;;;;;;7.20;1.90;;;12.80;51.20;;;;;;20873880;28;81018;-69
2021/10/26 07:51:28;;;;;;;7.70;1.73;;;13.00;50.70;;;;;;20873085;28;81572;-74
2021/10/26 08:01:31;;;;;;;8.63;2.30;;;13.40;50.10;;;;;;20875502;27;81724;-69
2021/10/26 08:11:37;;;;;;;4.57;1.60;;;13.90;49.30;;;;;;20884947;27;81767;-67
2021/10/26 08:21:40;;;;;;;8.05;1.60;;;14.30;48.30;;;;;;20885831;27;81879;-67
2021/10/26 08:32:23;;;;;;;7.78;2.90;;;14.60;47.70;;;;;;20881659;27;80761;-68
2021/10/26 08:42:10;;;;;;;15.67;2.17;;;14.90;50.80;;;;;;20882883;28;81894;-63
2021/10/26 08:52:13;;;;;;;6.75;2.35;;;15.00;50.50;;;;;;20883653;28;81917;-62
2021/10/26 09:02:16;;;;;;;7.07;1.77;;;15.20;49.60;;;;;;20880548;28;81828;-62
2021/10/26 09:22:27;;;;;;;5.43;1.80;;;15.90;47.50;;;;;;20878815;28;82138;-62
2021/10/26 09:32:31;;;;;;;7.03;2.33;;;16.40;46.10;;;;;;20875016;28;81853;-62
2021/10/26 09:42:45;;;;;;;6.97;2.47;;;16.90;45.60;;;;;;20877381;28;81786;-61
2021/10/26 09:52:50;;;;;;;8.10;2.83;;;20.30;38.90;;;;;;20878967;27;81021;-63
2021/10/26 10:03:16;;;;;;;12.52;2.33;;;22.50;34.90;;;;;;20877969;27;81792;-63
2021/10/26 10:13:21;;;;;;;4.18;2.30;;;27.30;29.20;;;;;;20873969;28;82590;-62
2021/10/26 10:23:25;;;;;;;8.30;2.50;;;30.50;25.00;;;;;;20877411;27;81810;-61
2021/10/26 10:33:28;;;;;;;5.15;2.67;;;32.70;22.40;;;;;;20871478;27;81987;-61
2021/10/26 10:43:35;;;;;;;6.72;2.75;;;34.40;21.20;;;;;;20869959;28;82325;-64
2021/10/26 10:53:43;;;;;;;8.45;3.75;;;35.70;20.10;;;;;;20875904;27;81141;-62
2021/10/26 11:03:45;;;;;;;10.95;2.70;;;38.00;18.80;;;;;;20873005;28;81410;-62
2021/10/26 11:13:48;;;;;;;5.10;2.50;;;40.00;17.20;;;;;;20872616;27;80972;-62
2021/10/26 11:24:07;;;;;;;5.28;2.80;;;41.00;16.60;;;;;;20870936;27;81921;-65
2021/10/26 11:34:22;;;;;;;7.57;2.67;;;39.90;17.30;;;;;;20871496;27;81071;-63
2021/10/26 11:44:26;;;;;;;12.82;2.92;;;38.80;18.00;;;;;;20870484;28;80890;-63
2021/10/26 11:54:39;;;;;;;8.18;2.40;;;34.60;21.30;;;;;;20870693;28;81853;-62
2021/10/26 12:04:52;;;;;;;9.65;2.25;;;35.20;20.80;;;;;;20872346;28;81737;-63
2021/10/26 12:14:56;;;;;;;4.70;1.75;;;37.60;19.30;;;;;;20866386;28;81931;-63
2021/10/26 12:25:08;;;;;;;8.60;2.17;;;39.20;17.50;;;;;;20867673;27;81205;-63
2021/10/26 12:35:12;;;;;;;9.80;2.15;;;34.60;21.30;;;;;;20869641;27;82321;-62
2021/10/26 12:45:16;;;;;;;7.13;2.63;;;35.90;19.80;;;;;;20868028;27;82814;-64
2021/10/26 12:55:37;;;;;;;5.43;1.80;;;32.90;22.30;;;;;;20880682;27;81013;-63
2021/10/26 13:06:13;;;;;;;8.35;2.55;;;33.40;22.10;;;;;;20881757;27;81908;-61
2021/10/26 13:16:29;;;;;;;7.15;2.75;;;;;;;;;;20892974;27;80930;-63
2021/10/26 13:26:33;;;;;;;4.03;2.10;;;39.10;17.10;;;;;;20894765;27;80103;-63
2021/10/26 13:36:39;;;;;;;10.82;2.33;;;36.10;19.50;;;;;;20892958;27;82065;-63
2021/10/26 13:46:43;;;;;;;11.13;2.10;;;32.80;22.40;;;;;;20890987;28;79888;-63
2021/10/26 13:56:47;;;;;;;6.75;1.75;;;37.50;18.20;;;;;;20891646;27;81588;-61
2021/10/26 14:06:50;;;;;;;7.70;2.60;;;37.20;18.40;;;;;;20889089;27;82184;-63
2021/10/26 14:16:52;;;;;;;8.35;2.15;;;35.60;19.50;;;;;;20889442;27;80570;-64
2021/10/26 14:26:54;;;;;;;9.65;2.45;;;35.60;19.70;;;;;;20891130;27;81801;-64
2021/10/26 14:57:25;;;;;;;7.03;2.35;;;34.10;20.50;;;;;;20887373;27;80700;-64
2021/10/26 15:07:28;;;;;;;9.27;2.28;;;36.00;19.10;;;;;;20885881;27;80833;-64
2021/10/26 15:17:30;;;;;;;6.20;2.00;;;32.60;22.00;;;;;;20884260;27;80893;-64
2021/10/26 15:37:53;;;;;;;5.75;2.13;;;26.20;28.20;;;;;;20880790;27;80957;-62
2021/10/26 15:47:55;;;;;;;7.15;2.80;;;25.10;29.50;;;;;;20880253;27;80683;-63
2021/10/26 15:57:58;;;;;;;8.32;2.28;;;24.30;30.90;;;;;;20881908;27;81905;-63
2021/10/26 16:08:05;;;;;;;5.47;1.98;;;23.60;31.90;;;;;;20883406;27;82132;-65
2021/10/26 16:18:07;;;;;;;10.48;2.40;;;23.20;32.40;;;;;;20873813;27;80770;-63
2021/10/26 16:28:09;;;;;;;9.20;3.20;;;22.80;34.10;;;;;;20809596;28;80476;-62
2021/10/26 16:38:10;;;;;;;;;;;22.30;35.10;;;;;;20809747;28;80900;-63
2021/10/26 16:48:13;;;;;;;9.38;2.83;;;21.90;35.30;;;;;;20832243;28;81744;-63
2021/10/26 16:58:15;;;;;;;7.78;3.72;;;21.40;36.90;;;;;;20817321;28;82604;-65
2021/10/26 17:08:17;;;;;;;10.50;5.00;;;21.00;38.00;;;;;;20829478;27;80733;-64
2021/10/26 17:18:21;;;;;;;15.00;6.20;;;20.50;39.20;;;;;;20811093;28;81043;-62
2021/10/26 17:28:24;;;;;;;15.63;5.07;;;20.10;40.30;;;;;;20807727;28;80191;-66
2021/10/26 17:38:28;;;;;;;13.40;5.00;;;19.60;41.50;;;;;;20806772;28;81839;-67
2021/10/26 17:48:31;;;;;;;12.68;4.97;;;19.30;43.00;;;;;;20816621;28;80967;-70
2021/10/26 17:58:38;;;;;;;14.98;5.38;;;18.90;43.60;;;;;;20847437;28;81555;-69
2021/10/26 18:08:42;;;;;;;14.57;6.43;;;18.60;44.20;;;;;;20876874;28;80915;-72
2021/10/26 18:18:45;;;;;;;16.23;5.57;;;18.30;45.50;;;;;;20869296;28;80691;-70
2021/10/26 18:28:52;;;;;;;18.20;6.55;;;18.10;45.80;;;;;;20872737;28;80618;-69
2021/10/26 18:38:55;;;;;;;19.25;5.43;;;17.90;46.70;;;;;;20873672;28;80601;-68
2021/10/26 18:48:56;;;;;;;17.40;5.97;;;17.70;47.00;;;;;;20880897;27;80361;-70
2021/10/26 18:58:58;;;;;;;24.75;8.25;;;17.50;47.90;;;;;;20885742;28;81873;-70
2021/10/26 19:09:01;;;;;;;15.07;6.63;;;17.30;48.20;;;;;;20842532;28;81704;-68
2021/10/26 19:19:03;;;;;;;16.03;5.90;;;17.20;48.40;;;;;;20824230;28;81712;-68
2021/10/26 19:29:05;;;;;;;15.97;4.57;;;17.00;48.20;;;;;;20811605;27;80646;-67
2021/10/26 19:39:07;;;;;;;12.03;4.17;;;16.70;48.60;;;;;;20800598;28;80775;-71
2021/10/26 19:49:09;;;;;;;8.80;3.77;;;16.50;48.50;;;;;;20838259;27;81811;-67
2021/10/26 19:59:13;;;;;;;13.00;3.70;;;16.40;48.10;;;;;;20861932;28;82255;-68
2021/10/26 20:09:15;;;;;;;9.63;3.90;;;16.10;48.10;;;;;;20849223;28;81933;-66
2021/10/26 20:19:29;;;;;;;9.23;2.90;;;16.00;47.90;;;;;;20833238;28;81840;-67
2021/10/26 20:29:32;;;;;;;14.60;3.88;;;15.80;47.80;;;;;;20797882;28;82377;-70
2021/10/26 20:39:34;;;;;;;9.17;3.73;;;15.40;48.40;;;;;;20797806;28;80440;-70
2021/10/26 20:49:37;;;;;;;8.05;3.20;;;15.30;48.60;;;;;;20797470;28;81903;-70
2021/10/26 20:59:39;;;;;;;6.95;3.15;;;15.10;48.90;;;;;;20797005;28;81757;-70
2021/10/26 21:09:41;;;;;;;12.07;3.33;;;14.90;49.10;;;;;;20798174;28;81526;-70
2021/10/26 21:19:45;;;;;;;8.95;3.55;;;14.70;49.50;;;;;;20809635;28;80995;-68
2021/10/26 21:29:48;;;;;;;9.57;3.60;;;14.70;49.90;;;;;;20851283;28;80656;-70
2021/10/26 21:39:50;;;;;;;;;;;14.60;50.40;;;;;;20807281;28;81702;-68
2021/10/26 21:49:54;;;;;;;7.68;3.33;;;14.40;50.80;;;;;;20830469;28;81759;-68
2021/10/26 21:59:57;;;;;;;7.47;2.95;;;14.20;50.90;;;;;;20807119;28;80089;-68
2021/10/26 22:10:02;;;;;;;12.17;4.30;;;14.20;51.20;;;;;;20807334;28;81121;-68
2021/10/26 22:20:05;;;;;;;14.65;3.95;;;14.10;51.50;;;;;;20804630;28;80799;-67
2021/10/26 22:30:09;;;;;;;14.13;4.38;;;13.90;51.80;;;;;;20805240;28;82301;-66
2021/10/26 22:40:11;;;;;;;11.57;3.97;;;13.90;52.40;;;;;;20804018;28;80873;-68
2021/10/26 22:50:14;;;;;;;6.90;3.13;;;13.70;52.80;;;;;;20805248;28;81772;-66
2021/10/26 23:00:16;;;;;;;;;;;13.50;53.30;;;;;;20802419;28;80803;-68
2021/10/26 23:10:19;;;;;;;12.45;4.07;;;13.40;53.30;;;;;;20824583;28;79525;-69
2021/10/26 23:20:22;;;;;;;10.80;3.67;;;13.40;53.50;;;;;;20802067;28;80406;-68
2021/10/26 23:30:23;;;;;;;8.32;3.10;;;13.20;54.10;;;;;;20800762;28;80692;-70
2021/10/26 23:40:28;;;;;;;11.05;3.15;;;13.10;54.20;;;;;;20799605;28;81899;-70
2021/10/26 23:50:30;;;;;;;7.28;3.17;;;13.00;54.90;;;;;;20800501;28;81780;-69
